createdAt,value
2023-04-19T00:00:58.152Z,79.3483
2023-04-19T00:01:59.624Z,79.1549
2023-04-19T00:03:01.332Z,79.1845
2023-04-19T00:04:03.060Z,79.2458
2023-04-19T00:05:05.351Z,79.3630
2023-04-19T00:06:07.097Z,79.1008
2023-04-19T00:07:08.478Z,79.1718
2023-04-19T00:08:09.938Z,79.4251
2023-04-19T00:09:11.304Z,79.3095
2023-04-19T00:10:12.701Z,79.5255
2023-04-19T00:11:14.092Z,79.7445
2023-04-19T00:12:15.476Z,79.3605
2023-04-19T00:13:16.875Z,79.1389
2023-04-19T00:14:18.389Z,78.9593
2023-04-19T00:15:19.918Z,79.0092
2023-04-19T00:16:21.389Z,79.2833
2023-04-19T00:17:22.842Z,79.3497
2023-04-19T00:18:24.329Z,79.2878
2023-04-19T00:19:25.749Z,79.4267
2023-04-19T00:20:27.408Z,79.4858
2023-04-19T00:21:29.080Z,79.3769
2023-04-19T00:22:30.526Z,79.4301
2023-04-19T00:23:31.997Z,79.5843
2023-04-19T00:24:33.436Z,79.4568
2023-04-19T00:25:34.890Z,79.4531
2023-04-19T00:26:36.282Z,79.5703
2023-04-19T00:27:37.638Z,79.6507
2023-04-19T00:28:39.034Z,79.8603
2023-04-19T00:29:40.422Z,80.0317
2023-04-19T00:30:41.855Z,79.7953
2023-04-19T00:31:43.255Z,79.6449
2023-04-19T00:32:44.674Z,79.5519
2023-04-19T00:33:46.027Z,79.6724
2023-04-19T00:34:47.414Z,79.8420
2023-04-19T00:35:48.753Z,80.0054
2023-04-19T00:36:50.144Z,79.8643
2023-04-19T00:37:51.548Z,79.8682
2023-04-19T00:38:52.959Z,79.7578
2023-04-19T00:39:54.344Z,79.9758
2023-04-19T00:40:55.730Z,79.9262
2023-04-19T00:41:57.072Z,79.8594
2023-04-19T00:42:58.478Z,79.8379
2023-04-19T00:43:59.841Z,79.6123
2023-04-19T00:45:01.409Z,79.5203
2023-04-19T00:46:02.838Z,79.4927
2023-04-19T00:47:04.226Z,79.8158
2023-04-19T00:48:05.865Z,80.1489
2023-04-19T00:49:07.213Z,79.9431
2023-04-19T00:50:08.610Z,79.8676
2023-04-19T00:51:09.983Z,79.8442
2023-04-19T00:52:11.400Z,80.0410
2023-04-19T00:53:12.801Z,80.1063
2023-04-19T00:54:14.443Z,79.9378
2023-04-19T00:55:16.298Z,79.8629
2023-04-19T00:56:17.697Z,80.0155
2023-04-19T00:57:19.060Z,80.0926
2023-04-19T00:58:20.412Z,79.9234
2023-04-19T00:59:21.756Z,79.9836
2023-04-19T01:00:23.145Z,80.1182
2023-04-19T01:01:24.510Z,80.0048
2023-04-19T01:02:25.930Z,80.0327
2023-04-19T01:03:27.889Z,80.1968
2023-04-19T01:04:29.734Z,80.3878
2023-04-19T01:05:31.153Z,80.3441
2023-04-19T01:06:32.508Z,80.3361
2023-04-19T01:07:33.944Z,80.1586
2023-04-19T01:08:35.309Z,80.1220
2023-04-19T01:09:36.708Z,80.0234
2023-04-19T01:10:38.045Z,79.9993
2023-04-19T01:11:40.782Z,80.3148
2023-04-19T01:12:41.436Z,80.3253
2023-04-19T01:13:42.803Z,80.1888
2023-04-19T01:14:44.202Z,80.4653
2023-04-19T01:15:45.620Z,80.8907
2023-04-19T01:16:46.995Z,80.8389
2023-04-19T01:17:48.399Z,80.7765
2023-04-19T01:18:49.808Z,80.8641
2023-04-19T01:19:51.202Z,80.9202
2023-04-19T01:20:52.589Z,80.8109
2023-04-19T01:21:54.038Z,80.7143
2023-04-19T01:22:55.393Z,80.6559
2023-04-19T01:23:56.973Z,80.8489
2023-04-19T01:24:58.365Z,80.9964
2023-04-19T01:25:59.885Z,80.8408
2023-04-19T01:27:01.317Z,80.9901
2023-04-19T01:28:02.814Z,81.1163
2023-04-19T01:29:04.230Z,81.1004
2023-04-19T01:30:05.573Z,81.0098
2023-04-19T01:31:06.960Z,81.0396
2023-04-19T01:32:08.277Z,80.9819
2023-04-19T01:33:09.618Z,80.9997
2023-04-19T01:34:10.983Z,81.0541
2023-04-19T01:35:12.328Z,80.8718
2023-04-19T01:36:13.673Z,80.7573
2023-04-19T01:37:15.010Z,80.7010
2023-04-19T01:38:16.497Z,80.7387
2023-04-19T01:39:18.870Z,80.7744
2023-04-19T01:40:20.301Z,80.9168
2023-04-19T01:41:21.643Z,80.8109
2023-04-19T01:42:23.101Z,80.9506
2023-04-19T01:43:24.522Z,81.0675
2023-04-19T01:44:25.913Z,81.0868
2023-04-19T01:45:27.315Z,81.1533
2023-04-19T01:46:28.888Z,81.0878
2023-04-19T01:47:30.308Z,81.1583
2023-04-19T01:48:31.758Z,81.2129
2023-04-19T01:49:33.146Z,81.1652
2023-04-19T01:50:34.591Z,80.9650
2023-04-19T01:51:36.013Z,80.9567
2023-04-19T01:52:37.485Z,81.1798
2023-04-19T01:53:38.920Z,81.3182
2023-04-19T01:54:40.287Z,81.2055
2023-04-19T01:55:41.742Z,81.2333
2023-04-19T01:56:43.209Z,81.2177
2023-04-19T01:57:44.609Z,81.2573
2023-04-19T01:58:46.057Z,81.2517
2023-04-19T01:59:47.430Z,81.3113
2023-04-19T02:00:48.919Z,81.3525
2023-04-19T02:01:50.348Z,81.3821
2023-04-19T02:02:51.989Z,81.3172
2023-04-19T02:03:53.598Z,81.5676
2023-04-19T02:04:55.526Z,81.5739
2023-04-19T02:05:56.963Z,81.4500
2023-04-19T02:06:58.431Z,81.4228
2023-04-19T02:07:59.876Z,81.4829
2023-04-19T02:09:01.258Z,81.3982
2023-04-19T02:10:02.773Z,81.3899
2023-04-19T02:11:04.221Z,81.4089
2023-04-19T02:12:05.623Z,81.4062
2023-04-19T02:13:07.139Z,81.3866
2023-04-19T02:14:08.542Z,81.3655
2023-04-19T02:15:09.969Z,81.3990
2023-04-19T02:16:11.550Z,81.3690
2023-04-19T02:17:13.037Z,81.4810
2023-04-19T02:18:14.423Z,81.3459
2023-04-19T02:19:15.875Z,81.3644
2023-04-19T02:20:17.299Z,81.4133
2023-04-19T02:21:18.724Z,81.5747
2023-04-19T02:22:20.147Z,81.4682
2023-04-19T02:23:21.608Z,81.1730
2023-04-19T02:24:23.014Z,81.1939
2023-04-19T02:25:24.467Z,81.1922
2023-04-19T02:26:26.030Z,81.3656
2023-04-19T02:27:27.489Z,81.5849
2023-04-19T02:28:28.888Z,81.6291
2023-04-19T02:29:30.382Z,81.5402
2023-04-19T02:30:31.858Z,81.4103
2023-04-19T02:31:33.300Z,81.4059
2023-04-19T02:32:34.790Z,81.4480
2023-04-19T02:33:36.127Z,81.5264
2023-04-19T02:34:37.599Z,81.8008
2023-04-19T02:35:38.966Z,81.6465
2023-04-19T02:36:40.347Z,81.6599
2023-04-19T02:37:41.829Z,81.5306
2023-04-19T02:38:43.190Z,81.4027
2023-04-19T02:39:44.595Z,81.4135
2023-04-19T02:40:46.035Z,81.4321
2023-04-19T02:41:47.558Z,81.4911
2023-04-19T02:42:48.963Z,81.4211
2023-04-19T02:43:50.411Z,81.2104
2023-04-19T02:44:51.995Z,81.1810
2023-04-19T02:45:53.476Z,81.2230
2023-04-19T02:46:54.893Z,81.0597
2023-04-19T02:47:56.369Z,80.9684
2023-04-19T02:48:57.939Z,81.0219
2023-04-19T02:49:59.328Z,81.1523
2023-04-19T02:51:00.773Z,81.3379
2023-04-19T02:52:02.241Z,81.3945
2023-04-19T02:53:03.785Z,81.5534
2023-04-19T02:54:05.273Z,81.6406
2023-04-19T02:55:06.659Z,81.8656
2023-04-19T02:56:08.073Z,81.8355
2023-04-19T02:57:09.526Z,81.5900
2023-04-19T02:58:10.921Z,81.4526
2023-04-19T02:59:12.370Z,81.4762
2023-04-19T03:00:13.861Z,81.3867
2023-04-19T03:01:15.643Z,81.4144
2023-04-19T03:02:17.118Z,81.2244
2023-04-19T03:03:18.593Z,81.2427
2023-04-19T03:04:19.998Z,81.3961
2023-04-19T03:05:21.445Z,81.4573
2023-04-19T03:06:22.858Z,81.5769
2023-04-19T03:07:24.378Z,81.8857
2023-04-19T03:08:25.799Z,81.9256
2023-04-19T03:09:27.227Z,81.9017
2023-04-19T03:10:28.685Z,81.9612
2023-04-19T03:11:30.091Z,82.0915
2023-04-19T03:12:31.473Z,82.2565
2023-04-19T03:13:32.968Z,82.3247
2023-04-19T03:14:34.362Z,82.3399
2023-04-19T03:15:35.815Z,82.3297
2023-04-19T03:16:37.252Z,82.3537
2023-04-19T03:17:38.697Z,82.2887
2023-04-19T03:18:40.131Z,82.1846
2023-04-19T03:19:41.609Z,81.9963
2023-04-19T03:20:43.058Z,81.9645
2023-04-19T03:21:44.519Z,82.1231
2023-04-19T03:22:45.982Z,82.4193
2023-04-19T03:23:47.380Z,82.5211
2023-04-19T03:24:48.787Z,82.5209
2023-04-19T03:25:50.250Z,82.2602
2023-04-19T03:26:51.725Z,82.2360
2023-04-19T03:27:53.155Z,82.3754
2023-04-19T03:28:54.660Z,82.3764
2023-04-19T03:29:56.179Z,82.2731
2023-04-19T03:30:57.676Z,82.1499
2023-04-19T03:31:59.113Z,82.2948
2023-04-19T03:33:00.520Z,82.3115
2023-04-19T03:34:01.940Z,82.3175
2023-04-19T03:35:03.348Z,82.4351
2023-04-19T03:36:04.797Z,82.4282
2023-04-19T03:37:06.190Z,82.4905
2023-04-19T03:38:07.632Z,82.5295
2023-04-19T03:39:09.082Z,82.3993
2023-04-19T03:40:10.503Z,82.5331
2023-04-19T03:41:11.949Z,82.6141
2023-04-19T03:42:13.420Z,82.5824
2023-04-19T03:43:14.839Z,82.4511
2023-04-19T03:44:16.432Z,82.4374
2023-04-19T03:45:18.194Z,82.4227
2023-04-19T03:46:19.649Z,82.2248
2023-04-19T03:47:21.253Z,82.0972
2023-04-19T03:48:22.837Z,81.9935
2023-04-19T03:49:24.294Z,82.1956
2023-04-19T03:50:25.737Z,82.3226
2023-04-19T03:51:27.158Z,82.2995
2023-04-19T03:52:28.567Z,82.3388
2023-04-19T03:53:29.970Z,82.3026
2023-04-19T03:54:31.375Z,82.1476
2023-04-19T03:55:32.841Z,82.2831
2023-04-19T03:56:34.438Z,82.3216
2023-04-19T03:57:35.863Z,82.2688
2023-04-19T03:58:37.381Z,82.2165
2023-04-19T03:59:38.800Z,82.2365
2023-04-19T04:00:40.258Z,82.1396
2023-04-19T04:01:41.895Z,82.0157
2023-04-19T04:02:43.837Z,82.0328
2023-04-19T04:03:45.634Z,81.9385
2023-04-19T04:04:47.486Z,81.9227
2023-04-19T04:05:48.929Z,82.0160
2023-04-19T04:06:50.406Z,82.0767
2023-04-19T04:07:51.808Z,82.1679
2023-04-19T04:08:53.199Z,82.1895
2023-04-19T04:09:54.618Z,82.2216
2023-04-19T04:10:56.026Z,82.2468
2023-04-19T04:11:57.410Z,82.1710
2023-04-19T04:12:58.899Z,82.0949
2023-04-19T04:14:00.392Z,81.9999
2023-04-19T04:15:01.863Z,81.9287
2023-04-19T04:16:03.290Z,82.0743
2023-04-19T04:17:04.716Z,82.1507
2023-04-19T04:18:08.566Z,82.3516
2023-04-19T04:19:07.910Z,82.2355
2023-04-19T04:20:09.328Z,82.1891
2023-04-19T04:21:10.717Z,82.2217
2023-04-19T04:22:12.163Z,82.3529
2023-04-19T04:23:13.566Z,82.3786
2023-04-19T04:24:15.144Z,82.4373
2023-04-19T04:25:16.686Z,82.2977
2023-04-19T04:26:18.086Z,82.0567
2023-04-19T04:27:19.584Z,81.9033
2023-04-19T04:28:21.274Z,82.0499
2023-04-19T04:29:22.735Z,82.1688
2023-04-19T04:30:26.554Z,82.2896
2023-04-19T04:31:24.258Z,82.1869
2023-04-19T04:32:25.750Z,82.1255
2023-04-19T04:33:27.232Z,82.1168
2023-04-19T04:34:28.724Z,82.0221
2023-04-19T04:35:30.199Z,82.0668
2023-04-19T04:36:31.645Z,81.9435
2023-04-19T04:37:33.084Z,81.9484
2023-04-19T04:38:34.576Z,81.8087
2023-04-19T04:39:35.978Z,81.7416
2023-04-19T04:40:37.383Z,81.7306
2023-04-19T04:41:38.828Z,81.8449
2023-04-19T04:42:40.295Z,81.9688
2023-04-19T04:43:41.944Z,81.9579
2023-04-19T04:44:43.381Z,81.7155
2023-04-19T04:45:44.862Z,81.8252
2023-04-19T04:46:46.331Z,81.9646
2023-04-19T04:47:47.806Z,81.9148
2023-04-19T04:48:49.279Z,81.9310
2023-04-19T04:49:50.696Z,81.7830
2023-04-19T04:50:52.113Z,81.6509
2023-04-19T04:51:53.560Z,81.7360
2023-04-19T04:52:54.972Z,81.8443
2023-04-19T04:53:56.516Z,81.8657
2023-04-19T04:54:57.978Z,81.9607
2023-04-19T04:55:59.672Z,82.0597
2023-04-19T04:57:01.189Z,81.9569
2023-04-19T04:58:02.614Z,81.8618
2023-04-19T04:59:04.000Z,81.9183
2023-04-19T05:00:05.435Z,81.9333
2023-04-19T05:01:06.888Z,81.9165
2023-04-19T05:02:08.469Z,81.7486
2023-04-19T05:03:10.060Z,81.6117
2023-04-19T05:04:11.587Z,81.5030
2023-04-19T05:05:13.086Z,81.3903
2023-04-19T05:06:14.501Z,81.3330
2023-04-19T05:07:16.173Z,81.3534
2023-04-19T05:08:17.594Z,81.4187
2023-04-19T05:09:18.998Z,81.4298
2023-04-19T05:10:20.457Z,81.3175
2023-04-19T05:11:21.885Z,81.2024
2023-04-19T05:12:23.367Z,81.1052
2023-04-19T05:13:24.829Z,80.9747
2023-04-19T05:14:26.280Z,81.0240
2023-04-19T05:15:27.709Z,81.1528
2023-04-19T05:16:29.310Z,81.2090
2023-04-19T05:17:30.825Z,81.1920
2023-04-19T05:18:32.213Z,81.2849
2023-04-19T05:19:33.654Z,81.2299
2023-04-19T05:20:35.089Z,81.1349
2023-04-19T05:21:36.577Z,81.1400
2023-04-19T05:22:37.978Z,81.2571
2023-04-19T05:23:39.453Z,81.2468
2023-04-19T05:24:42.375Z,81.2159
2023-04-19T05:25:41.485Z,81.4287
2023-04-19T05:26:42.883Z,81.4992
2023-04-19T05:27:44.308Z,81.5675
2023-04-19T05:28:45.754Z,81.5595
2023-04-19T05:29:47.175Z,81.4500
2023-04-19T05:30:48.660Z,81.3109
2023-04-19T05:31:50.101Z,81.0997
2023-04-19T05:32:51.554Z,80.9699
2023-04-19T05:33:53.047Z,80.8844
2023-04-19T05:34:54.529Z,80.8184
2023-04-19T05:35:55.947Z,80.8393
2023-04-19T05:36:57.397Z,81.0749
2023-04-19T05:37:58.821Z,80.9285
2023-04-19T05:39:00.220Z,80.8244
2023-04-19T05:40:01.667Z,80.9719
2023-04-19T05:41:03.048Z,81.1463
2023-04-19T05:42:04.462Z,81.0403
2023-04-19T05:43:05.870Z,81.0722
2023-04-19T05:44:07.281Z,81.1212
2023-04-19T05:45:08.679Z,80.9981
2023-04-19T05:46:10.165Z,81.1855
2023-04-19T05:47:11.596Z,81.2141
2023-04-19T05:48:12.987Z,81.1258
2023-04-19T05:49:14.450Z,81.1139
2023-04-19T05:50:15.845Z,81.2162
2023-04-19T05:51:17.284Z,81.1170
2023-04-19T05:52:18.686Z,81.1891
2023-04-19T05:53:20.097Z,81.4332
2023-04-19T05:54:21.505Z,81.4320
2023-04-19T05:55:23.009Z,81.3284
2023-04-19T05:56:24.440Z,81.2544
2023-04-19T05:57:25.825Z,81.2172
2023-04-19T05:58:27.254Z,81.2068
2023-04-19T05:59:28.683Z,80.9481
2023-04-19T06:00:30.083Z,80.7385
2023-04-19T06:01:31.514Z,80.6947
2023-04-19T06:02:33.133Z,80.7496
2023-04-19T06:03:34.953Z,80.8783
2023-04-19T06:04:37.375Z,80.9613
2023-04-19T06:05:39.378Z,80.8477
2023-04-19T06:06:40.801Z,80.9035
2023-04-19T06:07:47.246Z,80.9370
2023-04-19T06:08:44.282Z,80.8202
2023-04-19T06:09:45.693Z,80.8502
2023-04-19T06:10:54.510Z,80.9132
2023-04-19T06:11:51.201Z,80.7463
2023-04-19T06:12:50.518Z,80.4978
2023-04-19T06:13:51.970Z,80.6061
2023-04-19T06:14:53.399Z,80.8562
2023-04-19T06:15:54.919Z,80.6301
2023-04-19T06:16:56.304Z,80.4504
2023-04-19T06:17:59.776Z,80.5225
2023-04-19T06:18:58.881Z,80.0137
2023-04-19T06:20:00.365Z,80.1493
2023-04-19T06:21:01.775Z,80.0900
2023-04-19T06:22:03.194Z,80.2035
2023-04-19T06:23:04.614Z,80.3528
2023-04-19T06:24:06.076Z,79.9404
2023-04-19T06:25:07.521Z,79.5940
2023-04-19T06:26:09.047Z,79.8583
2023-04-19T06:27:10.479Z,79.9261
2023-04-19T06:28:11.882Z,80.0119
2023-04-19T06:29:13.277Z,80.0861
2023-04-19T06:30:14.706Z,80.0106
2023-04-19T06:31:16.099Z,79.8978
2023-04-19T06:32:17.580Z,79.7234
2023-04-19T06:33:18.995Z,79.7194
2023-04-19T06:34:20.412Z,79.8327
2023-04-19T06:35:21.811Z,79.7769
2023-04-19T06:36:23.239Z,79.6547
2023-04-19T06:37:24.691Z,79.4426
2023-04-19T06:38:26.130Z,79.6213
2023-04-19T06:39:27.548Z,79.5779
2023-04-19T06:40:29.036Z,79.4425
2023-04-19T06:41:30.530Z,79.4325
2023-04-19T06:42:31.982Z,79.4855
2023-04-19T06:43:33.398Z,79.5471
2023-04-19T06:44:34.943Z,79.6254
2023-04-19T06:45:36.456Z,79.6218
2023-04-19T06:46:37.894Z,79.8080
2023-04-19T06:47:39.366Z,79.6234
2023-04-19T06:48:40.803Z,79.6789
2023-04-19T06:49:42.369Z,79.5157
2023-04-19T06:50:43.835Z,79.1348
2023-04-19T06:51:45.278Z,79.0873
2023-04-19T06:52:46.751Z,79.5087
2023-04-19T06:53:48.202Z,79.2854
2023-04-19T06:54:49.816Z,79.0860
2023-04-19T06:55:51.261Z,78.9492
2023-04-19T06:56:52.727Z,78.9040
2023-04-19T06:57:54.229Z,79.0460
2023-04-19T06:58:55.680Z,78.9901
2023-04-19T06:59:57.154Z,78.9254
2023-04-19T07:00:58.674Z,78.9478
2023-04-19T07:02:00.213Z,79.1362
2023-04-19T07:03:01.869Z,79.2134
2023-04-19T07:04:03.874Z,79.1302
2023-04-19T07:05:06.093Z,78.9667
2023-04-19T07:06:07.519Z,78.9577
2023-04-19T07:07:08.942Z,79.0709
2023-04-19T07:08:10.394Z,79.0184
2023-04-19T07:09:11.836Z,79.0336
2023-04-19T07:10:13.318Z,79.0935
2023-04-19T07:11:14.756Z,78.7491
2023-04-19T07:12:16.266Z,78.7334
2023-04-19T07:13:17.718Z,78.7328
2023-04-19T07:14:19.334Z,78.9829
2023-04-19T07:15:20.797Z,78.9801
2023-04-19T07:16:22.464Z,79.3199
2023-04-19T07:17:24.010Z,79.3492
2023-04-19T07:18:25.565Z,79.2909
2023-04-19T07:19:27.059Z,79.2062
2023-04-19T07:20:28.720Z,79.0171
2023-04-19T07:21:30.248Z,78.8815
2023-04-19T07:22:31.774Z,79.0283
2023-04-19T07:23:33.243Z,79.0386
2023-04-19T07:24:34.663Z,79.4666
2023-04-19T07:25:36.125Z,79.5545
2023-04-19T07:26:37.630Z,79.1596
2023-04-19T07:27:39.043Z,78.8004
2023-04-19T07:28:40.509Z,78.6463
2023-04-19T07:29:41.989Z,78.6497
2023-04-19T07:30:43.450Z,78.8334
2023-04-19T07:31:44.947Z,78.7966
2023-04-19T07:32:46.555Z,78.9666
2023-04-19T07:33:48.094Z,78.9386
2023-04-19T07:34:49.561Z,78.7487
2023-04-19T07:35:51.221Z,78.7129
2023-04-19T07:36:52.714Z,78.5028
2023-04-19T07:37:57.264Z,78.5399
2023-04-19T07:38:58.901Z,78.3631
2023-04-19T07:40:01.238Z,78.2943
2023-04-19T07:41:02.751Z,78.3873
2023-04-19T07:42:04.259Z,78.4576
2023-04-19T07:43:05.796Z,78.5176
2023-04-19T07:44:07.356Z,78.5113
2023-04-19T07:45:08.809Z,78.5527
2023-04-19T07:46:10.299Z,78.7640
2023-04-19T07:47:11.758Z,78.7088
2023-04-19T07:48:13.251Z,78.1907
2023-04-19T07:49:14.713Z,78.0849
2023-04-19T07:50:16.297Z,78.2252
2023-04-19T07:51:17.831Z,78.2601
2023-04-19T07:52:19.272Z,78.5885
2023-04-19T07:53:20.721Z,78.4913
2023-04-19T07:54:22.137Z,78.2859
2023-04-19T07:55:23.648Z,78.3430
2023-04-19T07:56:25.091Z,78.4649
2023-04-19T07:57:26.618Z,78.1285
2023-04-19T07:58:28.090Z,78.2964
2023-04-19T07:59:29.602Z,78.1548
2023-04-19T08:00:31.023Z,78.1487
2023-04-19T08:01:32.840Z,77.8834
2023-04-19T08:02:34.787Z,77.6788
2023-04-19T08:03:36.481Z,77.5979
2023-04-19T08:04:38.548Z,77.6057
2023-04-19T08:05:40.417Z,77.7563
2023-04-19T08:06:41.975Z,77.9242
2023-04-19T08:07:43.478Z,77.8987
2023-04-19T08:08:44.930Z,77.8678
2023-04-19T08:09:46.476Z,77.7557
2023-04-19T08:10:47.932Z,77.6036
2023-04-19T08:11:49.447Z,77.5356
2023-04-19T08:14:04.558Z,77.1619
2023-04-19T08:15:02.661Z,77.4656
2023-04-19T08:17:22.050Z,77.1480
2023-04-19T08:18:01.119Z,76.9557
2023-04-19T08:19:02.608Z,77.1200
2023-04-19T08:20:04.100Z,77.2858
2023-04-19T08:21:05.538Z,76.6440
2023-04-19T08:22:07.014Z,76.3959
2023-04-19T08:23:20.363Z,76.6882
2023-04-19T08:24:10.483Z,76.8997
2023-04-19T08:25:11.900Z,76.6539
2023-04-19T08:26:13.378Z,76.7137
2023-04-19T08:27:14.881Z,76.4840
2023-04-19T08:28:16.354Z,76.2527
2023-04-19T08:29:17.945Z,76.1365
2023-04-19T08:30:19.595Z,75.9245
2023-04-19T08:31:21.056Z,75.7360
2023-04-19T08:32:22.552Z,75.9177
2023-04-19T08:33:24.040Z,75.7639
2023-04-19T08:34:25.469Z,76.0112
2023-04-19T08:35:26.908Z,76.5205
2023-04-19T08:36:37.104Z,76.2176
2023-04-19T08:37:30.451Z,76.0010
2023-04-19T08:38:31.975Z,75.9228
2023-04-19T08:39:34.262Z,75.7575
2023-04-19T08:40:33.545Z,75.8249
2023-04-19T08:41:34.999Z,75.7333
2023-04-19T08:42:37.249Z,75.4309
2023-04-19T08:43:40.486Z,75.7268
2023-04-19T08:44:53.795Z,75.3860
2023-04-19T08:45:43.007Z,75.4274
2023-04-19T08:46:44.421Z,75.4892
2023-04-19T08:47:58.665Z,75.3789
2023-04-19T08:48:47.942Z,75.3028
2023-04-19T08:49:56.300Z,75.1037
2023-04-19T08:51:04.446Z,75.3199
2023-04-19T08:51:53.494Z,75.7896
2023-04-19T08:52:59.053Z,75.8202
2023-04-19T08:53:56.975Z,75.6368
2023-04-19T08:54:58.471Z,75.7633
2023-04-19T08:56:10.023Z,75.5125
2023-04-19T08:57:01.958Z,75.1324
2023-04-19T08:58:04.197Z,75.1233
2023-04-19T08:59:19.253Z,75.3522
2023-04-19T09:00:06.619Z,75.3508
2023-04-19T09:01:08.301Z,75.2903
2023-04-19T09:02:08.733Z,75.3973
2023-04-19T09:03:10.646Z,75.3646
2023-04-19T09:05:13.378Z,75.7970
2023-04-19T09:06:15.293Z,75.6408
2023-04-19T09:07:16.842Z,75.4008
2023-04-19T09:08:18.297Z,75.2913
2023-04-19T09:10:21.576Z,75.4386
2023-04-19T09:11:23.085Z,75.3517
2023-04-19T09:12:24.537Z,75.3429
2023-04-19T09:13:26.032Z,74.9837
2023-04-19T09:14:27.467Z,74.7475
2023-04-19T09:15:28.940Z,74.8679
2023-04-19T09:16:30.414Z,74.8655
2023-04-19T09:17:31.888Z,74.4665
2023-04-19T09:18:35.933Z,74.1639
2023-04-19T09:19:35.372Z,73.8112
2023-04-19T09:20:36.840Z,73.2891
2023-04-19T09:21:38.270Z,72.6518
2023-04-19T09:22:39.684Z,72.8554
2023-04-19T09:23:41.148Z,72.2758
2023-04-19T09:26:06.280Z,72.4420
2023-04-19T09:26:46.233Z,72.2461
2023-04-19T09:27:47.669Z,72.1213
2023-04-19T09:28:49.081Z,72.2706
2023-04-19T09:29:50.496Z,72.5712
2023-04-19T09:31:00.668Z,72.7437
2023-04-19T09:31:54.092Z,73.0490
2023-04-19T09:32:55.568Z,73.5210
2023-04-19T09:33:56.983Z,73.6605
2023-04-19T09:34:58.454Z,73.3140
2023-04-19T09:35:59.902Z,73.0922
2023-04-19T09:37:12.177Z,72.9381
2023-04-19T09:38:06.721Z,72.7144
2023-04-19T09:39:05.934Z,72.8627
2023-04-19T09:40:07.381Z,72.7286
2023-04-19T09:41:08.800Z,73.0194
2023-04-19T09:42:10.260Z,72.6637
2023-04-19T09:44:50.198Z,72.6518
2023-04-19T09:46:17.344Z,72.1731
2023-04-19T09:47:18.716Z,72.3356
2023-04-19T09:48:20.159Z,72.3796
2023-04-19T09:49:33.547Z,72.2521
2023-04-19T09:50:27.288Z,72.2446
2023-04-19T09:51:23.753Z,71.9594
2023-04-19T09:52:25.150Z,71.9518
2023-04-19T09:53:26.528Z,71.9762
2023-04-19T09:54:27.941Z,71.6508
2023-04-19T09:55:31.721Z,71.5793
2023-04-19T09:56:31.350Z,71.5161
2023-04-19T09:57:32.766Z,70.8957
2023-04-19T09:59:35.919Z,71.3109
2023-04-19T10:00:47.996Z,71.6697
2023-04-19T10:01:39.368Z,72.0728
2023-04-19T10:02:40.949Z,71.7605
2023-04-19T10:03:42.619Z,71.6775
2023-04-19T10:05:46.317Z,71.5082
2023-04-19T10:07:07.403Z,71.9033
2023-04-19T10:07:49.874Z,72.1816
2023-04-19T10:08:51.621Z,72.1510
2023-04-19T10:09:55.023Z,72.8451
2023-04-19T10:10:55.236Z,73.0547
2023-04-19T10:12:03.764Z,72.7135
2023-04-19T10:13:15.891Z,72.4314
2023-04-19T10:14:00.900Z,72.4259
2023-04-19T10:15:02.313Z,72.2598
2023-04-19T10:16:15.502Z,72.4573
2023-04-19T10:17:05.794Z,72.5710
2023-04-19T10:18:07.413Z,72.6878
2023-04-19T10:19:10.054Z,72.2376
2023-04-19T10:20:09.224Z,72.3191
2023-04-19T10:21:10.608Z,72.5215
2023-04-19T10:22:11.990Z,72.3784
2023-04-19T10:23:13.487Z,72.1664
2023-04-19T10:24:14.893Z,72.3629
2023-04-19T10:25:16.356Z,72.3510
2023-04-19T10:26:17.765Z,72.0277
2023-04-19T10:27:19.216Z,71.9204
2023-04-19T10:28:20.647Z,71.7467
2023-04-19T10:29:22.074Z,71.2321
2023-04-19T10:30:23.517Z,71.6114
2023-04-19T10:31:24.912Z,71.2261
2023-04-19T10:32:26.380Z,70.8551
2023-04-19T10:33:27.898Z,70.8163
2023-04-19T10:34:29.350Z,70.3434
2023-04-19T10:35:30.753Z,69.7115
2023-04-19T10:36:32.189Z,69.2964
2023-04-19T10:37:33.793Z,69.7074
2023-04-19T10:38:35.329Z,70.1040
2023-04-19T10:39:36.794Z,70.4944
2023-04-19T10:40:38.178Z,70.2255
2023-04-19T10:41:39.654Z,70.1469
2023-04-19T10:42:41.037Z,70.4860
2023-04-19T10:43:42.477Z,70.6769
2023-04-19T10:44:43.866Z,70.9729
2023-04-19T10:45:45.313Z,71.5403
2023-04-19T10:46:46.707Z,71.7377
2023-04-19T10:47:48.195Z,71.6565
2023-04-19T10:48:49.701Z,72.0731
2023-04-19T10:49:51.181Z,72.7411
2023-04-19T10:50:52.634Z,72.6753
2023-04-19T10:51:54.059Z,72.6701
2023-04-19T10:52:55.484Z,72.6272
2023-04-19T10:53:56.940Z,72.9015
2023-04-19T10:54:58.374Z,72.6221
2023-04-19T10:55:59.779Z,71.9523
2023-04-19T10:57:01.201Z,71.4395
2023-04-19T10:58:02.602Z,71.6275
2023-04-19T10:59:04.036Z,71.3634
2023-04-19T11:00:05.471Z,71.2403
2023-04-19T11:01:06.889Z,71.6535
2023-04-19T11:02:08.395Z,71.7767
2023-04-19T11:03:10.086Z,71.8861
2023-04-19T11:04:11.902Z,71.8681
2023-04-19T11:05:13.603Z,71.8639
2023-04-19T11:06:15.014Z,71.9719
2023-04-19T11:07:16.386Z,71.6517
2023-04-19T11:08:17.799Z,71.3932
2023-04-19T11:09:19.260Z,71.7739
2023-04-19T11:10:20.719Z,71.4758
2023-04-19T11:11:22.143Z,71.1017
2023-04-19T11:12:23.597Z,71.3381
2023-04-19T11:13:25.039Z,71.3384
2023-04-19T11:14:26.493Z,71.1204
2023-04-19T11:15:27.969Z,71.3000
2023-04-19T11:16:42.434Z,71.8819
2023-04-19T11:17:31.598Z,71.6697
2023-04-19T11:18:33.301Z,71.0978
2023-04-19T11:19:34.683Z,70.9521
2023-04-19T11:20:36.157Z,70.8041
2023-04-19T11:21:37.554Z,70.4950
2023-04-19T11:22:39.052Z,70.9424
2023-04-19T11:23:40.455Z,71.1993
2023-04-19T11:24:41.873Z,71.1678
2023-04-19T11:25:43.296Z,70.4920
2023-04-19T11:26:44.752Z,70.0416
2023-04-19T11:27:46.230Z,70.1873
2023-04-19T11:28:47.680Z,69.5460
2023-04-19T11:29:49.135Z,69.8867
2023-04-19T11:30:50.622Z,69.6009
2023-04-19T11:31:52.137Z,69.1452
2023-04-19T11:32:53.666Z,68.8306
2023-04-19T11:33:55.439Z,69.1280
2023-04-19T11:34:57.069Z,69.2735
2023-04-19T11:35:58.509Z,69.2626
2023-04-19T11:36:59.938Z,69.3066
2023-04-19T11:38:01.428Z,69.2840
2023-04-19T11:39:02.898Z,69.6877
2023-04-19T11:40:05.104Z,69.9844
2023-04-19T11:41:06.908Z,70.7167
2023-04-19T11:42:08.340Z,70.1658
2023-04-19T11:43:09.710Z,69.8384
2023-04-19T11:44:11.159Z,69.6186
2023-04-19T11:45:25.897Z,69.6294
2023-04-19T11:46:14.737Z,69.8280
2023-04-19T11:47:16.251Z,69.2855
2023-04-19T11:48:17.888Z,69.5846
2023-04-19T11:49:19.348Z,69.8252
2023-04-19T11:50:20.831Z,69.9883
2023-04-19T11:51:22.460Z,69.9920
2023-04-19T11:52:23.913Z,70.2359
2023-04-19T11:53:25.371Z,70.5072
2023-04-19T11:54:26.854Z,70.4230
2023-04-19T11:55:28.272Z,70.2078
2023-04-19T11:56:29.732Z,70.3605
2023-04-19T11:57:31.183Z,69.9296
2023-04-19T11:58:32.617Z,70.0647
2023-04-19T11:59:34.064Z,70.1905
2023-04-19T12:00:35.524Z,70.1516
2023-04-19T12:01:36.918Z,70.0218
2023-04-19T12:02:38.610Z,69.8069
2023-04-19T12:03:40.335Z,69.6951
2023-04-19T12:04:42.205Z,69.1575
2023-04-19T12:05:44.146Z,69.2825
2023-04-19T12:06:45.666Z,69.4664
2023-04-19T12:07:47.124Z,69.2694
2023-04-19T12:08:48.575Z,68.7599
2023-04-19T12:09:50.032Z,68.4053
2023-04-19T12:10:51.519Z,68.4907
2023-04-19T12:11:52.940Z,68.1871
2023-04-19T12:12:54.383Z,68.0473
2023-04-19T12:13:55.813Z,68.1918
2023-04-19T12:14:57.289Z,68.4328
2023-04-19T12:15:58.758Z,68.2612
2023-04-19T12:17:00.322Z,67.8036
2023-04-19T12:18:01.876Z,67.4838
2023-04-19T12:19:03.476Z,67.5004
2023-04-19T12:20:05.027Z,67.7637
2023-04-19T12:21:06.465Z,67.7192
2023-04-19T12:22:07.921Z,68.0632
2023-04-19T12:23:09.401Z,68.1388
2023-04-19T12:24:10.918Z,68.2363
2023-04-19T12:25:12.404Z,68.2034
2023-04-19T12:26:13.839Z,68.0025
2023-04-19T12:27:15.359Z,67.9051
2023-04-19T12:28:16.836Z,67.8681
2023-04-19T12:29:18.385Z,67.7296
2023-04-19T12:30:19.836Z,68.3166
2023-04-19T12:31:21.250Z,68.5500
2023-04-19T12:32:22.733Z,68.8224
2023-04-19T12:33:24.240Z,69.0737